Time;durP1;ratioP1;P1;durP2;ratioP2;P2;SDS_P1;SDS_P2;PMS_P1;PMS_P2;Temp;Humidity;BMP_temperature;BMP_pressure;BME280_temperature;BME280_humidity;BME280_pressure;Samples;Min_cycle;Max_cycle;Signal;HPM_P1;HPM_P2
2023/12/04 00:00:39;;;;;;;;;;;1.40;99.90;;;;;;2611500;54;19947;-67
2023/12/04 00:03:08;;;;;;;;;;;1.40;99.90;;;;;;2610683;54;19957;-67
2023/12/04 00:05:38;;;;;;;;;;;1.40;99.90;;;;;;2611750;47;20038;-67
2023/12/04 00:08:08;;;;;;;;;;;1.40;99.90;;;;;;2614001;54;19941;-68
2023/12/04 00:10:37;;;;;;;;;;;1.20;99.90;;;;;;2612558;54;19947;-67
2023/12/04 00:13:09;;;;;;;;;;;1.30;99.90;;;;;;2612537;54;19939;-68
2023/12/04 00:15:39;;;;;;;;;;;1.30;99.90;;;;;;2617661;54;19939;-67
2023/12/04 00:18:09;;;;;;;;;;;1.30;99.90;;;;;;2615123;54;19962;-67
2023/12/04 00:20:38;;;;;;;;;;;1.20;99.90;;;;;;2614972;47;19947;-66
2023/12/04 00:23:08;;;;;;;;;;;1.20;99.90;;;;;;2614925;39;20361;-67
2023/12/04 00:25:38;;;;;;;;;;;1.10;99.90;;;;;;2613235;54;19939;-67
2023/12/04 00:28:10;;;;;;;;;;;1.10;99.90;;;;;;2611433;54;19941;-69
2023/12/04 00:30:40;;;;;;;;;;;1.10;99.90;;;;;;2613528;39;20369;-67
2023/12/04 00:33:09;;;;;;;;;;;1.00;99.90;;;;;;2610174;39;20377;-66
2023/12/04 00:35:39;;;;;;;;;;;1.10;99.90;;;;;;2614386;50;19946;-66
2023/12/04 00:38:09;;;;;;;;;;;1.10;99.90;;;;;;2612020;54;19946;-67
2023/12/04 00:40:38;;;;;;;;;;;1.10;99.90;;;;;;2612890;54;19946;-67
2023/12/04 00:43:11;;;;;;;;;;;1.10;99.90;;;;;;2615594;54;19946;-67
2023/12/04 00:45:40;;;;;;;;;;;1.00;99.90;;;;;;2613374;54;19947;-67
2023/12/04 00:48:10;;;;;;;;;;;1.00;99.90;;;;;;2612199;54;20455;-67
2023/12/04 00:50:40;;;;;;;;;;;1.00;99.90;;;;;;2612299;54;19946;-68
2023/12/04 00:53:09;;;;;;;;;;;1.00;99.90;;;;;;2614287;47;19946;-68
2023/12/04 00:55:39;;;;;;;;;;;1.00;99.90;;;;;;2613686;39;20368;-67
2023/12/04 00:58:11;;;;;;;;;;;0.90;99.90;;;;;;2612700;54;19954;-68
2023/12/04 01:00:41;;;;;;;;;;;0.90;99.90;;;;;;2613934;54;19946;-68
2023/12/04 01:03:10;;;;;;;;;;;0.90;99.90;;;;;;2610682;54;19950;-68
2023/12/04 01:05:40;;;;;;;;;;;0.90;99.90;;;;;;2612854;54;19939;-68
2023/12/04 01:08:10;;;;;;;;;;;0.90;99.90;;;;;;2615389;49;20476;-68
2023/12/04 01:10:41;;;;;;;;;;;0.80;99.90;;;;;;2612746;47;19953;-68
2023/12/04 01:13:13;;;;;;;;;;;0.80;99.90;;;;;;2616617;54;20002;-69
2023/12/04 01:15:43;;;;;;;;;;;0.80;99.90;;;;;;2616513;54;19947;-67
2023/12/04 01:18:12;;;;;;;;;;;0.80;99.90;;;;;;2616546;54;19954;-67
2023/12/04 01:20:43;;;;;;;;;;;0.80;99.90;;;;;;2600803;54;20034;-66
2023/12/04 01:23:12;;;;;;;;;;;0.80;99.90;;;;;;2616329;46;19962;-67
2023/12/04 01:25:42;;;;;;;;;;;0.70;99.90;;;;;;2616233;54;20026;-67
2023/12/04 01:28:14;;;;;;;;;;;0.70;99.90;;;;;;2616522;54;19946;-67
2023/12/04 01:30:44;;;;;;;;;;;0.70;99.90;;;;;;2614594;47;19991;-67
2023/12/04 01:33:14;;;;;;;;;;;0.70;99.90;;;;;;2615789;47;19978;-67
2023/12/04 01:35:43;;;;;;;;;;;0.70;99.90;;;;;;2614850;54;19958;-68
2023/12/04 01:38:13;;;;;;;;;;;0.70;99.90;;;;;;2614953;54;19950;-68
2023/12/04 01:40:43;;;;;;;;;;;0.70;99.90;;;;;;2615773;39;20350;-68
2023/12/04 01:43:15;;;;;;;;;;;0.70;99.90;;;;;;2615387;47;19939;-67
2023/12/04 01:45:45;;;;;;;;;;;0.70;99.90;;;;;;2615141;54;19939;-68
2023/12/04 01:48:16;;;;;;;;;;;0.70;99.90;;;;;;2615929;54;19946;-68
2023/12/04 01:50:46;;;;;;;;;;;0.70;99.90;;;;;;2616929;39;20388;-68
2023/12/04 01:53:16;;;;;;;;;;;0.70;99.90;;;;;;2613318;54;19950;-68
2023/12/04 01:55:45;;;;;;;;;;;0.70;99.90;;;;;;2615607;47;19946;-68
2023/12/04 01:58:18;;;;;;;;;;;0.70;99.90;;;;;;2615700;54;20613;-68
2023/12/04 02:00:48;;;;;;;;;;;0.60;99.90;;;;;;2617238;54;19970;-68
2023/12/04 02:03:17;;;;;;;;;;;0.60;99.90;;;;;;2617634;54;19946;-67
2023/12/04 02:05:47;;;;;;;;;;;0.60;99.90;;;;;;2616451;54;19951;-68
2023/12/04 02:08:17;;;;;;;;;;;0.60;99.90;;;;;;2615434;54;19942;-67
2023/12/04 02:10:47;;;;;;;;;;;0.60;99.90;;;;;;2616839;54;19939;-68
2023/12/04 02:13:19;;;;;;;;;;;0.60;99.90;;;;;;2618670;47;19972;-68
2023/12/04 02:15:51;;;;;;;;;;;0.50;99.90;;;;;;2618715;54;19947;-67
2023/12/04 02:18:22;;;;;;;;;;;0.50;99.90;;;;;;2615458;54;20071;-68
2023/12/04 02:20:51;;;;;;;;;;;0.50;99.90;;;;;;2613089;54;19957;-68
2023/12/04 02:23:21;;;;;;;;;;;0.50;99.90;;;;;;2612021;54;19958;-66
2023/12/04 02:25:54;;;;;;;;;;;0.50;99.90;;;;;;2608176;54;20438;-68
2023/12/04 02:28:24;;;;;;;;;;;0.50;99.90;;;;;;2615631;54;19938;-67
2023/12/04 04:45:37;;;;;;;;;;;0.50;99.90;;;;;;2603567;31;21245;-68
2023/12/04 04:48:07;;;;;;;;;;;0.40;99.90;;;;;;2614377;54;19946;-67
2023/12/04 04:50:37;;;;;;;;;;;0.10;99.90;;;;;;2616155;54;19942;-67
2023/12/04 04:53:06;;;;;;;;;;;0.20;99.90;;;;;;2613680;54;19939;-68
2023/12/04 04:55:36;;;;;;;;;;;0.20;99.90;;;;;;2616695;54;19947;-67
2023/12/04 04:58:17;;;;;;;;;;;0.10;99.90;;;;;;2617043;47;19939;-68
2023/12/04 05:00:50;;;;;;;;;;;0.10;99.90;;;;;;2615043;54;20077;-67
2023/12/04 05:03:20;;;;;;;;;;;-0.10;99.90;;;;;;2611032;54;19954;-68
2023/12/04 05:08:33;;;;;;;;;;;-0.30;99.90;;;;;;2601515;54;20034;-68
2023/12/04 05:11:03;;;;;;;;;;;-0.20;99.90;;;;;;2614762;47;19947;-66
2023/12/04 05:13:33;;;;;;;;;;;-0.20;99.90;;;;;;2617298;39;20368;-67
2023/12/04 05:16:06;;;;;;;;;;;-0.20;99.90;;;;;;2614592;54;19954;-67
2023/12/04 05:18:36;;;;;;;;;;;-0.10;99.90;;;;;;2615267;54;20827;-68
2023/12/04 05:21:06;;;;;;;;;;;-0.10;99.90;;;;;;2615495;54;19946;-68
2023/12/04 05:23:36;;;;;;;;;;;0.00;99.90;;;;;;2616088;54;19977;-68
2023/12/04 05:26:05;;;;;;;;;;;-0.10;99.90;;;;;;2614959;54;20457;-67
2023/12/04 05:28:36;;;;;;;;;;;-0.10;99.90;;;;;;2615599;54;19976;-68
2023/12/04 05:31:09;;;;;;;;;;;-0.10;99.90;;;;;;2616138;54;19938;-68
2023/12/04 05:33:38;;;;;;;;;;;-0.10;99.90;;;;;;2615978;54;19946;-69
2023/12/04 05:36:13;;;;;;;;;;;-0.20;99.90;;;;;;2616766;54;19986;-67
2023/12/04 05:38:43;;;;;;;;;;;-0.10;99.90;;;;;;2616416;39;20672;-66
2023/12/04 05:41:13;;;;;;;;;;;-0.10;99.90;;;;;;2614932;54;19955;-68
2023/12/04 05:43:42;;;;;;;;;;;-0.10;99.90;;;;;;2615863;54;19982;-68
2023/12/04 05:46:15;;;;;;;;;;;-0.10;99.90;;;;;;2615093;54;19946;-67
2023/12/04 05:48:45;;;;;;;;;;;-0.10;99.90;;;;;;2616458;39;20467;-68
2023/12/04 05:51:15;;;;;;;;;;;-0.20;99.90;;;;;;2616185;47;19950;-69
2023/12/04 05:53:45;;;;;;;;;;;-0.20;99.90;;;;;;2615951;47;19950;-67
2023/12/04 05:56:14;;;;;;;;;;;-0.20;99.90;;;;;;2616209;54;20073;-67
2023/12/04 05:58:44;;;;;;;;;;;-0.20;99.90;;;;;;2615981;47;19947;-70
2023/12/04 06:01:16;;;;;;;;;;;-0.20;99.90;;;;;;2615712;54;19970;-70
2023/12/04 06:03:46;;;;;;;;;;;0.00;99.90;;;;;;2614605;54;19942;-68
2023/12/04 06:06:16;;;;;;;;;;;-0.20;99.90;;;;;;2614859;54;19997;-69
2023/12/04 06:08:45;;;;;;;;;;;-0.30;99.90;;;;;;2616439;39;20420;-68
2023/12/04 06:11:15;;;;;;;;;;;-0.20;99.90;;;;;;2614722;39;20360;-69
2023/12/04 06:13:45;;;;;;;;;;;-0.20;99.90;;;;;;2615776;54;19938;-69
2023/12/04 06:16:17;;;;;;;;;;;-0.10;99.90;;;;;;2616792;54;20475;-68
2023/12/04 06:18:47;;;;;;;;;;;-0.20;99.90;;;;;;2615157;54;19946;-67
2023/12/04 06:21:17;;;;;;;;;;;-0.20;99.90;;;;;;2614121;47;20100;-68
2023/12/04 06:23:47;;;;;;;;;;;-0.20;99.90;;;;;;2616545;54;19950;-66
2023/12/04 06:26:17;;;;;;;;;;;-0.20;99.90;;;;;;2615388;54;19950;-69
2023/12/04 06:28:48;;;;;;;;;;;-0.20;99.90;;;;;;2607332;54;19972;-69
2023/12/04 06:31:20;;;;;;;;;;;-0.30;99.90;;;;;;2593791;47;19961;-69
2023/12/04 06:33:50;;;;;;;;;;;-0.30;99.90;;;;;;2598133;54;19957;-69
2023/12/04 06:36:21;;;;;;;;;;;-0.30;99.90;;;;;;2597902;54;19957;-67
2023/12/04 06:38:52;;;;;;;;;;;-0.20;99.90;;;;;;2598382;47;20472;-67
2023/12/04 06:41:22;;;;;;;;;;;-0.20;99.90;;;;;;2596896;47;19951;-68
2023/12/04 06:43:52;;;;;;;;;;;-0.10;99.90;;;;;;2598856;48;20469;-70
2023/12/04 06:46:26;;;;;;;;;;;-0.20;99.90;;;;;;2598681;39;20507;-70
2023/12/04 06:48:57;;;;;;;;;;;-0.10;99.90;;;;;;2596475;39;20475;-67
2023/12/04 06:51:27;;;;;;;;;;;-0.20;99.90;;;;;;2598613;54;20041;-67
2023/12/04 06:53:56;;;;;;;;;;;-0.20;99.90;;;;;;2598598;54;19954;-68
2023/12/04 06:56:26;;;;;;;;;;;-0.20;99.90;;;;;;2598428;46;19974;-67
2023/12/04 06:58:56;;;;;;;;;;;-0.20;99.90;;;;;;2599094;47;19954;-67
2023/12/04 07:01:28;;;;;;;;;;;-0.20;99.90;;;;;;2598717;47;19947;-67
2023/12/04 07:03:58;;;;;;;;;;;-0.30;99.90;;;;;;2598564;47;20001;-67
2023/12/04 07:06:27;;;;;;;;;;;-0.40;99.90;;;;;;2600380;47;19954;-69
2023/12/04 07:08:57;;;;;;;;;;;-0.40;99.90;;;;;;2600170;39;20681;-68
2023/12/04 07:11:27;;;;;;;;;;;-0.50;99.90;;;;;;2598608;54;19957;-68
2023/12/04 07:13:57;;;;;;;;;;;-0.50;99.90;;;;;;2599784;54;19954;-69
2023/12/04 07:16:29;;;;;;;;;;;-0.50;99.90;;;;;;2597929;47;19951;-69
2023/12/04 07:18:59;;;;;;;;;;;-0.50;99.90;;;;;;2597761;47;19954;-68
2023/12/04 07:21:29;;;;;;;;;;;0.20;99.90;;;;;;2596701;54;19950;-68
2023/12/04 07:23:59;;;;;;;;;;;-0.30;99.90;;;;;;2598120;54;19950;-67
2023/12/04 07:26:28;;;;;;;;;;;-0.30;99.90;;;;;;2597694;54;19981;-66
2023/12/04 07:28:58;;;;;;;;;;;-0.30;99.90;;;;;;2599165;47;19954;-69
2023/12/04 07:31:30;;;;;;;;;;;-0.30;99.90;;;;;;2599946;47;19954;-67
2023/12/04 07:34:01;;;;;;;;;;;-0.20;99.90;;;;;;2602839;47;19951;-68
2023/12/04 07:36:31;;;;;;;;;;;-0.10;99.90;;;;;;2604024;54;20532;-69
2023/12/04 07:39:01;;;;;;;;;;;-0.10;99.90;;;;;;2598673;39;20372;-68
2023/12/04 07:41:31;;;;;;;;;;;-0.10;99.90;;;;;;2598116;54;19954;-69
2023/12/04 07:44:01;;;;;;;;;;;0.00;99.90;;;;;;2599572;47;19938;-68
2023/12/04 07:46:33;;;;;;;;;;;0.00;99.90;;;;;;2599148;47;19951;-66
2023/12/04 07:49:03;;;;;;;;;;;0.00;99.90;;;;;;2609983;47;19950;-68
2023/12/04 07:51:33;;;;;;;;;;;0.00;99.90;;;;;;2615499;54;19954;-68
2023/12/04 07:54:03;;;;;;;;;;;0.10;99.90;;;;;;2615399;49;19958;-68
2023/12/04 07:56:33;;;;;;;;;;;0.20;99.90;;;;;;2614458;39;20360;-69
2023/12/04 07:59:02;;;;;;;;;;;0.20;99.90;;;;;;2615928;47;19947;-69
2023/12/04 08:01:35;;;;;;;;;;;0.30;99.90;;;;;;2614418;47;19947;-69
2023/12/04 08:04:05;;;;;;;;;;;0.30;99.90;;;;;;2614928;54;19945;-69
2023/12/04 08:06:35;;;;;;;;;;;0.40;99.90;;;;;;2615951;47;19951;-70
2023/12/04 08:09:05;;;;;;;;;;;0.40;99.90;;;;;;2615593;54;19946;-69
2023/12/04 08:11:35;;;;;;;;;;;0.50;99.90;;;;;;2616572;39;20364;-69
2023/12/04 08:14:05;;;;;;;;;;;0.50;99.90;;;;;;2615726;39;20444;-69
2023/12/04 08:16:37;;;;;;;;;;;0.50;99.90;;;;;;2615388;54;20026;-70
2023/12/04 08:19:06;;;;;;;;;;;0.50;99.90;;;;;;2614455;47;19953;-70
2023/12/04 08:21:36;;;;;;;;;;;0.60;99.90;;;;;;2614802;54;19947;-70
2023/12/04 08:24:06;;;;;;;;;;;0.60;99.90;;;;;;2616510;54;19985;-70
2023/12/04 08:26:36;;;;;;;;;;;2.40;99.90;;;;;;2616418;50;19946;-70
2023/12/04 08:29:05;;;;;;;;;;;0.70;99.90;;;;;;2615752;54;19947;-69
2023/12/04 08:31:37;;;;;;;;;;;0.70;99.90;;;;;;2613805;54;19953;-69
2023/12/04 08:34:07;;;;;;;;;;;0.70;99.90;;;;;;2615037;48;19957;-69
2023/12/04 08:36:37;;;;;;;;;;;0.80;99.90;;;;;;2616379;54;20464;-69
2023/12/04 08:39:15;;;;;;;;;;;0.80;99.90;;;;;;2615592;54;19990;-69
2023/12/04 08:41:46;;;;;;;;;;;0.90;99.90;;;;;;2614831;54;19957;-69
2023/12/04 08:44:29;;;;;;;;;;;1.00;99.90;;;;;;2614962;54;19954;-69
2023/12/04 08:47:02;;;;;;;;;;;1.00;99.90;;;;;;2615783;54;19938;-73
2023/12/04 08:49:32;;;;;;;;;;;1.10;99.90;;;;;;2613918;46;19939;-71
2023/12/04 08:52:12;;;;;;;;;;;1.10;99.90;;;;;;2615103;39;20368;-70
2023/12/04 08:54:43;;;;;;;;;;;1.10;99.90;;;;;;2615958;51;19970;-67
2023/12/04 08:57:12;;;;;;;;;;;1.00;99.90;;;;;;2615406;54;20552;-68
2023/12/04 08:59:42;;;;;;;;;;;1.10;99.90;;;;;;2616285;54;19969;-67
2023/12/04 09:02:14;;;;;;;;;;;1.10;99.90;;;;;;2616925;54;19946;-67
2023/12/04 09:04:44;;;;;;;;;;;1.10;99.90;;;;;;2619027;54;19946;-69
2023/12/04 09:07:14;;;;;;;;;;;1.20;99.90;;;;;;2616050;54;19946;-66
2023/12/04 09:09:47;;;;;;;;;;;1.20;99.90;;;;;;2615762;54;19946;-68
2023/12/04 09:12:17;;;;;;;;;;;1.20;99.90;;;;;;2615080;48;19947;-68
2023/12/04 09:14:47;;;;;;;;;;;1.20;99.90;;;;;;2615738;54;19953;-67
2023/12/04 09:17:20;;;;;;;;;;;1.20;99.90;;;;;;2614919;52;19962;-67
2023/12/04 09:19:51;;;;;;;;;;;1.20;99.90;;;;;;2615566;54;19946;-68
2023/12/04 09:22:21;;;;;;;;;;;1.20;99.90;;;;;;2615500;54;19972;-67
2023/12/04 09:24:58;;;;;;;;;;;1.20;99.90;;;;;;2615961;54;20022;-68
2023/12/04 09:27:27;;;;;;;;;;;1.40;99.90;;;;;;2613636;54;19946;-68
2023/12/04 09:29:57;;;;;;;;;;;1.10;99.90;;;;;;2614702;54;19946;-68
2023/12/04 09:32:30;;;;;;;;;;;1.20;99.90;;;;;;2615617;54;19939;-67
2023/12/04 09:35:00;;;;;;;;;;;1.10;99.90;;;;;;2615454;54;19946;-67
2023/12/04 09:37:29;;;;;;;;;;;1.20;99.90;;;;;;2614045;54;19954;-67
2023/12/04 09:39:59;;;;;;;;;;;1.20;99.90;;;;;;2615276;47;20441;-68
2023/12/04 09:42:29;;;;;;;;;;;1.10;99.90;;;;;;2615608;46;19958;-68
2023/12/04 09:45:01;;;;;;;;;;;1.10;99.90;;;;;;2614720;54;19954;-68
2023/12/04 09:47:34;;;;;;;;;;;1.10;99.90;;;;;;2615941;47;19993;-68
2023/12/04 09:50:05;;;;;;;;;;;1.10;99.90;;;;;;2615155;54;19946;-67
2023/12/04 09:52:37;;;;;;;;;;;1.10;99.90;;;;;;2615733;54;19962;-69
2023/12/04 09:55:07;;;;;;;;;;;1.00;99.90;;;;;;2616503;54;20472;-68
2023/12/04 09:57:36;;;;;;;;;;;1.10;99.90;;;;;;2615100;47;19938;-68
2023/12/04 10:00:07;;;;;;;;;;;1.10;99.90;;;;;;2615483;39;20340;-70
2023/12/04 10:02:40;;;;;;;;;;;1.10;99.90;;;;;;2614244;54;19946;-70
2023/12/04 10:05:10;;;;;;;;;;;1.10;99.90;;;;;;2614594;47;20814;-70
2023/12/04 10:07:40;;;;;;;;;;;1.20;99.90;;;;;;2614686;48;19954;-73
2023/12/04 10:10:10;;;;;;;;;;;1.10;99.90;;;;;;2615593;47;19947;-68
2023/12/04 10:12:47;;;;;;;;;;;1.10;99.90;;;;;;2614234;54;19950;-68
2023/12/04 10:15:17;;;;;;;;;;;1.10;99.90;;;;;;2612427;49;19942;-68
2023/12/04 10:17:49;;;;;;;;;;;1.10;99.90;;;;;;2616358;54;19958;-68
2023/12/04 10:20:21;;;;;;;;;;;1.20;99.90;;;;;;2612424;47;19951;-66
2023/12/04 10:22:55;;;;;;;;;;;1.20;99.90;;;;;;2615526;54;19951;-69
2023/12/04 10:25:26;;;;;;;;;;;1.30;99.90;;;;;;2615924;54;19939;-70
2023/12/04 10:27:56;;;;;;;;;;;1.40;99.90;;;;;;2615594;31;20449;-66
2023/12/04 10:30:26;;;;;;;;;;;1.40;99.90;;;;;;2614762;54;19954;-68
2023/12/04 10:33:03;;;;;;;;;;;1.50;99.90;;;;;;2615994;52;19954;-68
2023/12/04 10:35:36;;;;;;;;;;;1.50;99.90;;;;;;2615355;54;19953;-67
2023/12/04 10:38:06;;;;;;;;;;;1.60;99.90;;;;;;2614833;54;20467;-71
2023/12/04 10:40:36;;;;;;;;;;;1.60;99.90;;;;;;2615595;47;19966;-67
2023/12/04 10:43:13;;;;;;;;;;;1.60;99.90;;;;;;2614521;54;20026;-69
2023/12/04 10:45:43;;;;;;;;;;;1.70;99.90;;;;;;2615098;47;19953;-70
2023/12/04 10:48:17;;;;;;;;;;;1.60;99.90;;;;;;2617941;46;20045;-70
2023/12/04 10:50:48;;;;;;;;;;;1.70;99.90;;;;;;2620872;47;20522;-70
2023/12/04 10:53:18;;;;;;;;;;;1.60;99.90;;;;;;2617294;47;19947;-69
2023/12/04 10:55:50;;;;;;;;;;;1.70;99.90;;;;;;2615976;47;19958;-70
2023/12/04 10:58:21;;;;;;;;;;;0.40;99.90;;;;;;2614442;47;20548;-70
2023/12/04 11:00:51;;;;;;;;;;;1.70;99.90;;;;;;2614758;54;20480;-68
2023/12/04 11:03:25;;;;;;;;;;;1.80;99.90;;;;;;2614790;54;19953;-67
2023/12/04 11:05:57;;;;;;;;;;;1.80;99.90;;;;;;2615251;54;19970;-69
2023/12/04 11:08:27;;;;;;;;;;;1.80;99.90;;;;;;2615288;54;20010;-68
2023/12/04 11:10:59;;;;;;;;;;;1.80;99.90;;;;;;2615802;47;20025;-68
2023/12/04 11:13:30;;;;;;;;;;;1.80;99.90;;;;;;2613812;54;19957;-68
2023/12/04 11:16:03;;;;;;;;;;;1.80;99.90;;;;;;2615487;48;20444;-68
2023/12/04 11:18:38;;;;;;;;;;;1.80;99.90;;;;;;2615137;47;19954;-68
2023/12/04 11:21:10;;;;;;;;;;;1.80;99.90;;;;;;2615934;47;20031;-68
2023/12/04 11:23:40;;;;;;;;;;;1.80;99.90;;;;;;2615262;47;20000;-68
2023/12/04 11:26:10;;;;;;;;;;;1.70;99.90;;;;;;2615727;54;19947;-67
2023/12/04 11:28:40;;;;;;;;;;;1.60;99.90;;;;;;2614524;54;19969;-68
2023/12/04 11:31:10;;;;;;;;;;;1.50;99.90;;;;;;2615447;39;20364;-69
2023/12/04 11:33:42;;;;;;;;;;;1.50;99.90;;;;;;2615321;39;20365;-69
2023/12/04 11:36:14;;;;;;;;;;;1.50;99.90;;;;;;2614953;54;19973;-67
2023/12/04 11:38:47;;;;;;;;;;;1.50;99.90;;;;;;2614733;54;19961;-67
2023/12/04 11:41:17;;;;;;;;;;;1.40;99.90;;;;;;2615210;47;19989;-68
2023/12/04 11:43:53;;;;;;;;;;;1.40;99.90;;;;;;2615910;47;19955;-67
2023/12/04 11:46:24;;;;;;;;;;;1.40;99.90;;;;;;2614937;54;19947;-68
2023/12/04 11:48:57;;;;;;;;;;;1.40;99.90;;;;;;2615029;54;19951;-68
2023/12/04 11:51:44;;;;;;;;;;;1.40;99.90;;;;;;2614487;54;20081;-68
2023/12/04 11:54:16;;;;;;;;;;;1.40;99.90;;;;;;2615276;54;19954;-68
2023/12/04 11:56:59;;;;;;;;;;;1.40;99.90;;;;;;2615026;54;19958;-69
2023/12/04 11:59:28;;;;;;;;;;;1.40;99.90;;;;;;2614699;47;19954;-67
2023/12/04 12:01:59;;;;;;;;;;;1.30;99.90;;;;;;2615426;54;19952;-69
2023/12/04 12:04:32;;;;;;;;;;;1.30;99.90;;;;;;2614312;47;20033;-67
2023/12/04 12:07:02;;;;;;;;;;;1.30;99.90;;;;;;2615618;47;19978;-69
2023/12/04 12:09:33;;;;;;;;;;;1.20;99.90;;;;;;2616102;54;19935;-69
2023/12/04 12:12:03;;;;;;;;;;;1.20;99.90;;;;;;2617913;54;20098;-69
2023/12/04 12:14:34;;;;;;;;;;;1.30;99.90;;;;;;2617258;54;19949;-68
2023/12/04 12:17:03;;;;;;;;;;;1.10;99.90;;;;;;2617617;47;20006;-67
2023/12/04 12:19:37;;;;;;;;;;;0.90;99.90;;;;;;2615561;39;20333;-68
2023/12/04 12:22:07;;;;;;;;;;;0.70;99.90;;;;;;2616473;47;20445;-68
2023/12/04 12:24:37;;;;;;;;;;;0.80;99.90;;;;;;2615774;54;19953;-68
2023/12/04 12:27:07;;;;;;;;;;;0.80;99.90;;;;;;2616027;54;19947;-69
2023/12/04 12:29:37;;;;;;;;;;;0.90;99.90;;;;;;2615599;54;19939;-67
2023/12/04 12:32:07;;;;;;;;;;;0.90;99.90;;;;;;2616113;54;19946;-69
2023/12/04 12:34:40;;;;;;;;;;;1.00;99.90;;;;;;2614611;54;19947;-68
2023/12/04 12:37:10;;;;;;;;;;;0.90;99.90;;;;;;2617029;54;19946;-67
2023/12/04 12:39:41;;;;;;;;;;;0.90;99.90;;;;;;2615793;47;19946;-69
2023/12/04 12:42:11;;;;;;;;;;;0.90;99.90;;;;;;2618977;47;19958;-68
2023/12/04 12:44:42;;;;;;;;;;;0.90;99.90;;;;;;2619017;54;19939;-69
2023/12/04 12:47:12;;;;;;;;;;;0.90;99.90;;;;;;2616705;39;20368;-69
2023/12/04 12:49:44;;;;;;;;;;;2.60;99.90;;;;;;2615843;47;19946;-69
2023/12/04 12:52:15;;;;;;;;;;;0.90;99.90;;;;;;2616592;54;20066;-68
2023/12/04 12:54:46;;;;;;;;;;;1.00;99.90;;;;;;2616577;54;19939;-69
2023/12/04 12:57:15;;;;;;;;;;;1.00;99.90;;;;;;2614859;54;20074;-68
2023/12/04 12:59:45;;;;;;;;;;;0.90;99.90;;;;;;2613626;39;20365;-69
2023/12/04 13:02:16;;;;;;;;;;;0.90;99.90;;;;;;2614995;54;19973;-68
2023/12/04 13:04:48;;;;;;;;;;;0.90;99.90;;;;;;2616598;54;19958;-68
2023/12/04 13:07:19;;;;;;;;;;;1.00;99.90;;;;;;2616838;46;19938;-70
2023/12/04 13:09:49;;;;;;;;;;;1.00;99.90;;;;;;2616054;54;19934;-69
2023/12/04 13:12:19;;;;;;;;;;;1.00;99.90;;;;;;2615626;47;19951;-68
2023/12/04 13:14:49;;;;;;;;;;;1.00;99.90;;;;;;2615500;47;19939;-69
2023/12/04 13:17:19;;;;;;;;;;;1.00;99.90;;;;;;2616043;54;19943;-69
2023/12/04 13:19:51;;;;;;;;;;;1.00;99.90;;;;;;2614590;54;19942;-69
2023/12/04 13:22:22;;;;;;;;;;;1.10;99.90;;;;;;2618500;54;19954;-69
2023/12/04 13:24:52;;;;;;;;;;;1.10;99.90;;;;;;2616302;47;19943;-69
2023/12/04 13:27:22;;;;;;;;;;;1.10;99.90;;;;;;2614610;54;19947;-70
2023/12/04 13:29:52;;;;;;;;;;;1.10;99.90;;;;;;2617055;54;19939;-69
2023/12/04 13:32:22;;;;;;;;;;;1.10;99.90;;;;;;2616137;54;20473;-69
2023/12/04 13:34:55;;;;;;;;;;;1.10;99.90;;;;;;2615056;47;20066;-69
2023/12/04 13:37:26;;;;;;;;;;;1.00;99.90;;;;;;2616139;39;20303;-69
2023/12/04 13:39:58;;;;;;;;;;;1.00;99.90;;;;;;2616170;54;19949;-70
2023/12/04 13:45:12;;;;;;;;;;;1.00;99.90;;;;;;2615100;47;19950;-69
2023/12/04 13:47:42;;;;;;;;;;;1.00;99.90;;;;;;2615229;47;19957;-70
2023/12/04 13:50:14;;;;;;;;;;;1.00;99.90;;;;;;2614663;54;20026;-68
2023/12/04 13:52:44;;;;;;;;;;;1.10;99.90;;;;;;2614697;54;19951;-68
2023/12/04 13:55:20;;;;;;;;;;;1.10;99.90;;;;;;2615104;46;19942;-69
2023/12/04 13:58:09;;;;;;;;;;;0.70;99.90;;;;;;2613082;54;19958;-69
2023/12/04 14:00:39;;;;;;;;;;;1.20;99.90;;;;;;2615064;54;19946;-69
2023/12/04 14:03:10;;;;;;;;;;;1.20;99.90;;;;;;2615857;54;19950;-70
2023/12/04 14:05:42;;;;;;;;;;;1.20;99.90;;;;;;2617312;39;20380;-70
2023/12/04 14:08:13;;;;;;;;;;;1.20;99.90;;;;;;2616606;47;19942;-69
2023/12/04 14:10:43;;;;;;;;;;;1.20;99.90;;;;;;2615808;52;20057;-70
2023/12/04 14:13:12;;;;;;;;;;;1.20;99.90;;;;;;2616327;54;19946;-71
2023/12/04 14:15:42;;;;;;;;;;;1.20;99.90;;;;;;2615538;47;19942;-68
2023/12/04 14:18:13;;;;;;;;;;;1.10;99.90;;;;;;2616020;50;19946;-67
2023/12/04 14:20:45;;;;;;;;;;;1.20;99.90;;;;;;2615388;54;19947;-68
2023/12/04 14:23:14;;;;;;;;;;;1.00;99.90;;;;;;2617905;54;19973;-67
2023/12/04 14:25:44;;;;;;;;;;;1.10;99.90;;;;;;2616745;54;20433;-69
2023/12/04 14:28:14;;;;;;;;;;;1.10;99.90;;;;;;2615980;54;20003;-69
2023/12/04 14:30:47;;;;;;;;;;;1.10;99.90;;;;;;2615698;54;19947;-67
2023/12/04 14:33:16;;;;;;;;;;;1.10;99.90;;;;;;2618786;54;19939;-69
2023/12/04 14:35:49;;;;;;;;;;;1.10;99.90;;;;;;2619688;47;19938;-69
2023/12/04 14:38:18;;;;;;;;;;;1.10;99.90;;;;;;2615714;52;19947;-69
2023/12/04 14:40:48;;;;;;;;;;;1.10;99.90;;;;;;2614586;54;19943;-69
2023/12/04 14:43:18;;;;;;;;;;;1.10;99.90;;;;;;2614064;54;19942;-67
2023/12/04 14:45:47;;;;;;;;;;;1.10;99.90;;;;;;2615173;54;19942;-68
2023/12/04 14:48:17;;;;;;;;;;;1.10;99.90;;;;;;2616116;39;20051;-68
2023/12/04 14:50:49;;;;;;;;;;;1.10;99.90;;;;;;2615675;47;19950;-67
2023/12/04 14:53:30;;;;;;;;;;;1.10;99.90;;;;;;2615945;54;19958;-68
2023/12/04 15:02:20;;;;;;;;;;;1.20;99.90;;;;;;2616876;39;20719;-70
2023/12/04 15:07:47;;;;;;;;;;;1.00;99.90;;;;;;2614478;54;20405;-69
2023/12/04 15:16:02;;;;;;;;;;;1.00;99.90;;;;;;2615638;39;20357;-70
2023/12/04 15:18:36;;;;;;;;;;;1.00;99.90;;;;;;2615305;54;20857;-70
2023/12/04 15:21:07;;;;;;;;;;;1.10;99.90;;;;;;2616630;54;19954;-68
2023/12/04 15:23:37;;;;;;;;;;;1.10;99.90;;;;;;2616486;54;19946;-70
2023/12/04 15:26:07;;;;;;;;;;;1.20;99.90;;;;;;2614520;54;19953;-68
2023/12/04 15:28:34;;;;;;;;;;;1.20;99.90;;;;;;2615123;54;20425;-68
2023/12/04 15:31:04;;;;;;;;;;;1.10;99.90;;;;;;2615729;53;19950;-69
2023/12/04 15:33:31;;;;;;;;;;;1.20;99.90;;;;;;2614760;54;19996;-70
2023/12/04 15:36:01;;;;;;;;;;;1.10;99.90;;;;;;2614955;54;20426;-68
2023/12/04 15:38:29;;;;;;;;;;;1.20;99.90;;;;;;2614917;54;19945;-68
2023/12/04 15:41:01;;;;;;;;;;;1.20;99.90;;;;;;2615874;54;19947;-68
2023/12/04 15:43:28;;;;;;;;;;;1.20;99.90;;;;;;2615795;54;19947;-68
2023/12/04 15:45:58;;;;;;;;;;;1.20;99.90;;;;;;2615562;54;19946;-69
2023/12/04 15:48:25;;;;;;;;;;;1.20;99.90;;;;;;2615020;54;20038;-67
2023/12/04 15:50:55;;;;;;;;;;;2.40;99.90;;;;;;2616443;31;20407;-69
2023/12/04 15:53:23;;;;;;;;;;;1.20;99.90;;;;;;2615789;47;20441;-68
2023/12/04 15:55:55;;;;;;;;;;;1.20;99.90;;;;;;2615824;39;20368;-68
2023/12/04 15:58:25;;;;;;;;;;;1.20;99.90;;;;;;2616485;39;20607;-70
2023/12/04 16:00:55;;;;;;;;;;;1.20;99.90;;;;;;2614116;54;20030;-68
2023/12/04 16:03:24;;;;;;;;;;;1.30;99.90;;;;;;2615590;54;20468;-68
2023/12/04 16:05:54;;;;;;;;;;;1.30;99.90;;;;;;2616096;54;19946;-68
2023/12/04 16:08:24;;;;;;;;;;;1.30;99.90;;;;;;2616123;47;20437;-69
2023/12/04 16:10:54;;;;;;;;;;;1.30;99.90;;;;;;2616656;47;19973;-69
2023/12/04 16:13:23;;;;;;;;;;;1.30;99.90;;;;;;2615640;54;20529;-68
2023/12/04 16:15:56;;;;;;;;;;;1.40;99.90;;;;;;2615335;54;19958;-69
2023/12/04 16:18:25;;;;;;;;;;;1.30;99.90;;;;;;2616798;54;20006;-69
2023/12/04 16:20:56;;;;;;;;;;;1.20;99.90;;;;;;2616256;54;19953;-69
2023/12/04 16:23:25;;;;;;;;;;;1.20;99.90;;;;;;2618112;54;19950;-69
2023/12/04 16:25:55;;;;;;;;;;;1.20;99.90;;;;;;2615351;54;19951;-68
2023/12/04 16:28:25;;;;;;;;;;;1.30;99.90;;;;;;2612480;46;19958;-67
2023/12/04 16:30:58;;;;;;;;;;;1.30;99.90;;;;;;2615455;47;19957;-68
2023/12/04 16:33:28;;;;;;;;;;;1.20;99.90;;;;;;2610700;39;20791;-69
2023/12/04 16:35:58;;;;;;;;;;;1.30;99.90;;;;;;2613379;54;19946;-70
2023/12/04 16:38:29;;;;;;;;;;;1.20;99.90;;;;;;2616495;54;19946;-69
2023/12/04 16:40:58;;;;;;;;;;;1.20;99.90;;;;;;2615817;47;19947;-69
2023/12/04 16:43:31;;;;;;;;;;;1.10;99.90;;;;;;2612619;54;19954;-68
2023/12/04 16:46:04;;;;;;;;;;;1.10;99.90;;;;;;2612078;46;20445;-71
2023/12/04 16:48:34;;;;;;;;;;;1.00;99.90;;;;;;2615295;54;19939;-71
2023/12/04 16:51:04;;;;;;;;;;;1.00;99.90;;;;;;2616426;54;19946;-68
2023/12/04 16:53:34;;;;;;;;;;;1.00;99.90;;;;;;2617335;39;20341;-69
2023/12/04 16:56:04;;;;;;;;;;;1.00;99.90;;;;;;2616716;47;20097;-69
2023/12/04 16:58:33;;;;;;;;;;;1.10;99.90;;;;;;2617386;47;20480;-70
2023/12/04 17:01:06;;;;;;;;;;;1.10;99.90;;;;;;2615895;54;20544;-69
2023/12/04 17:03:35;;;;;;;;;;;1.10;99.90;;;;;;2616563;54;19947;-70
2023/12/04 17:06:06;;;;;;;;;;;1.10;99.90;;;;;;2616335;54;19938;-68
2023/12/04 17:08:35;;;;;;;;;;;1.10;99.90;;;;;;2613111;54;19953;-69
2023/12/04 17:11:06;;;;;;;;;;;1.10;99.90;;;;;;2615770;47;19961;-70
2023/12/04 17:13:36;;;;;;;;;;;1.10;99.90;;;;;;2616404;54;19946;-69
2023/12/04 17:16:09;;;;;;;;;;;1.10;99.90;;;;;;2615854;54;19946;-69
2023/12/04 17:18:39;;;;;;;;;;;1.20;99.90;;;;;;2616278;39;20385;-70
2023/12/04 17:21:10;;;;;;;;;;;1.20;99.90;;;;;;2616076;47;19979;-70
2023/12/04 17:23:39;;;;;;;;;;;1.20;99.90;;;;;;2616446;54;19947;-69